createdAt,value
2018-09-12T00:00:27.651Z,8.90
2018-09-12T00:01:27.607Z,12.00
2018-09-12T00:02:27.531Z,7.40
2018-09-12T00:03:27.463Z,9.70
2018-09-12T00:04:27.465Z,6.70
2018-09-12T00:05:27.397Z,6.70
2018-09-12T00:06:27.337Z,6.60
2018-09-12T00:07:27.299Z,7.90
2018-09-12T00:08:27.273Z,7.90
2018-09-12T00:09:27.286Z,6.80
2018-09-12T00:10:27.189Z,5.70
2018-09-12T00:11:27.185Z,5.90
2018-09-12T00:12:27.120Z,6.60
2018-09-12T00:13:27.093Z,5.70
2018-09-12T00:14:27.049Z,7.10
2018-09-12T00:15:27.007Z,5.30
2018-09-12T00:16:26.979Z,5.80
2018-09-12T00:17:26.942Z,5.80
2018-09-12T00:18:26.901Z,6.00
2018-09-12T00:19:26.884Z,6.40
2018-09-12T00:20:26.835Z,6.30
2018-09-12T00:21:26.810Z,7.00
2018-09-12T00:23:02.680Z,5.60
2018-09-12T00:23:26.771Z,5.20
2018-09-12T00:24:26.681Z,7.40
2018-09-12T00:25:26.636Z,5.90
2018-09-12T00:26:26.617Z,5.70
2018-09-12T00:27:26.571Z,6.30
2018-09-12T00:28:26.539Z,7.00
2018-09-12T00:29:26.503Z,5.50
2018-09-12T00:30:26.488Z,5.60
2018-09-12T00:31:26.414Z,5.50
2018-09-12T00:32:26.393Z,5.30
2018-09-12T00:33:26.361Z,5.40
2018-09-12T00:34:26.300Z,6.50
2018-09-12T00:35:26.271Z,5.60
2018-09-12T00:36:26.229Z,4.90
2018-09-12T00:37:26.208Z,5.30
2018-09-12T00:38:26.161Z,6.80
2018-09-12T00:39:26.205Z,14.10
2018-09-12T00:40:26.093Z,6.80
2018-09-12T00:41:26.045Z,5.30
2018-09-12T00:42:26.053Z,8.20
2018-09-12T00:43:25.974Z,6.00
2018-09-12T00:44:25.967Z,10.10
2018-09-12T00:45:25.906Z,9.60
2018-09-12T00:46:25.861Z,5.80
2018-09-12T00:47:25.832Z,5.90
2018-09-12T00:48:25.788Z,6.90
2018-09-12T00:49:25.825Z,5.40
2018-09-12T00:50:25.717Z,7.40
2018-09-12T00:51:25.679Z,8.90
2018-09-12T00:52:25.644Z,5.50
2018-09-12T00:53:25.650Z,6.90
2018-09-12T00:54:25.588Z,6.90
2018-09-12T00:55:25.597Z,5.50
2018-09-12T00:56:25.511Z,6.70
2018-09-12T00:57:25.467Z,9.70
2018-09-12T00:58:25.416Z,6.00
2018-09-12T00:59:25.390Z,5.70
2018-09-12T01:00:25.351Z,5.80
2018-09-12T01:01:25.327Z,7.00
2018-09-12T01:02:25.297Z,5.60
2018-09-12T01:03:25.299Z,5.60
2018-09-12T01:04:25.188Z,6.60
2018-09-12T01:05:25.229Z,7.20
2018-09-12T01:06:25.124Z,5.70
2018-09-12T01:07:25.089Z,5.40
2018-09-12T01:08:25.053Z,5.50
2018-09-12T01:09:25.000Z,5.80
2018-09-12T01:10:24.974Z,5.60
2018-09-12T01:11:24.940Z,6.40
2018-09-12T01:12:24.896Z,6.00
2018-09-12T01:13:24.859Z,4.90
2018-09-12T01:14:24.841Z,6.70
2018-09-12T01:15:24.786Z,5.00
2018-09-12T01:16:24.745Z,6.70
2018-09-12T01:17:24.716Z,5.70
2018-09-12T01:18:24.668Z,7.70
2018-09-12T01:19:24.628Z,6.60
2018-09-12T01:20:24.595Z,5.70
2018-09-12T01:21:24.589Z,6.40
2018-09-12T01:22:24.517Z,6.50
2018-09-12T01:23:24.486Z,7.10
2018-09-12T01:24:24.449Z,6.50
2018-09-12T01:25:24.411Z,6.20
2018-09-12T01:26:24.383Z,6.40
2018-09-12T01:27:24.333Z,9.90
2018-09-12T01:28:24.298Z,11.20
2018-09-12T01:29:24.254Z,5.80
2018-09-12T01:30:24.257Z,8.90
2018-09-12T01:31:24.232Z,7.40
2018-09-12T01:32:24.153Z,8.40
2018-09-12T01:33:24.111Z,6.90
2018-09-12T01:34:24.090Z,6.10
2018-09-12T01:35:24.034Z,9.00
2018-09-12T01:36:24.028Z,6.30
2018-09-12T01:37:23.959Z,8.20
2018-09-12T01:38:23.977Z,13.00
2018-09-12T01:39:23.891Z,6.20
2018-09-12T01:40:23.862Z,5.60
2018-09-12T01:41:23.817Z,6.50
2018-09-12T01:42:23.790Z,5.70
2018-09-12T01:43:23.742Z,6.90
2018-09-12T01:44:23.714Z,6.00
2018-09-12T01:45:23.671Z,13.50
2018-09-12T01:46:23.652Z,7.30
2018-09-12T01:47:23.617Z,8.30
2018-09-12T01:48:23.559Z,8.70
2018-09-12T01:49:23.513Z,8.10
2018-09-12T01:50:23.466Z,5.70
2018-09-12T01:51:23.462Z,7.00
2018-09-12T01:52:23.395Z,6.50
2018-09-12T01:53:23.367Z,6.70
2018-09-12T01:54:23.311Z,8.20
2018-09-12T01:55:23.297Z,5.80
2018-09-12T01:56:23.263Z,9.50
2018-09-12T01:57:23.214Z,7.10
2018-09-12T01:58:23.192Z,6.90
2018-09-12T01:59:23.145Z,6.10
2018-09-12T02:00:23.104Z,6.60
2018-09-12T02:01:23.063Z,6.20
2018-09-12T02:02:23.043Z,6.90
2018-09-12T02:03:22.986Z,7.60
2018-09-12T02:04:22.948Z,9.00
2018-09-12T02:05:22.911Z,7.70
2018-09-12T02:06:22.940Z,8.40
2018-09-12T02:07:22.831Z,6.10
2018-09-12T02:08:22.793Z,7.00
2018-09-12T02:09:22.773Z,8.20
2018-09-12T02:10:22.789Z,7.90
2018-09-12T02:11:22.686Z,5.80
2018-09-12T02:12:22.639Z,7.60
2018-09-12T02:13:22.645Z,7.00
2018-09-12T02:14:22.559Z,7.40
2018-09-12T02:15:22.573Z,7.80
2018-09-12T02:16:22.516Z,5.90
2018-09-12T02:17:22.461Z,6.20
2018-09-12T02:18:22.451Z,7.40
2018-09-12T02:19:22.433Z,7.30
2018-09-12T02:20:22.344Z,8.00
2018-09-12T02:21:22.312Z,8.40
2018-09-12T02:22:22.279Z,7.10
2018-09-12T02:23:22.248Z,8.50
2018-09-12T02:24:22.247Z,13.70
2018-09-12T02:25:22.173Z,11.30
2018-09-12T02:26:22.141Z,12.20
2018-09-12T02:27:22.083Z,7.00
2018-09-12T02:28:22.124Z,6.60
2018-09-12T02:29:22.010Z,7.30
2018-09-12T02:30:21.984Z,6.50
2018-09-12T02:31:21.928Z,8.00
2018-09-12T02:32:21.903Z,7.60
2018-09-12T02:33:21.920Z,9.10
2018-09-12T02:34:21.815Z,6.40
2018-09-12T02:35:21.772Z,6.20
2018-09-12T02:36:21.734Z,6.20
2018-09-12T02:37:21.699Z,6.40
2018-09-12T02:38:21.662Z,7.50
2018-09-12T02:39:21.620Z,5.70
2018-09-12T02:40:21.610Z,5.80
2018-09-12T02:41:21.558Z,6.40
2018-09-12T02:42:21.514Z,11.80
2018-09-12T02:43:21.494Z,7.70
2018-09-12T02:44:21.452Z,7.20
2018-09-12T02:45:21.407Z,7.60
2018-09-12T02:46:21.409Z,5.90
2018-09-12T02:47:21.341Z,5.80
2018-09-12T02:48:21.278Z,6.10
2018-09-12T02:49:21.327Z,6.20
2018-09-12T02:50:21.243Z,6.30
2018-09-12T02:51:21.178Z,7.20
2018-09-12T02:52:21.138Z,6.60
2018-09-12T02:53:21.098Z,7.00
2018-09-12T02:54:21.067Z,8.90
2018-09-12T02:55:21.030Z,7.20
2018-09-12T02:56:21.026Z,6.20
2018-09-12T02:57:20.969Z,6.00
2018-09-12T02:58:20.916Z,6.30
2018-09-12T02:59:20.888Z,6.80
2018-09-12T03:00:20.830Z,7.00
2018-09-12T03:01:20.810Z,6.90
2018-09-12T03:02:20.739Z,7.70
2018-09-12T03:03:20.722Z,8.60
2018-09-12T03:04:20.678Z,9.10
2018-09-12T03:05:20.636Z,9.80
2018-09-12T03:06:20.606Z,6.80
2018-09-12T03:07:20.589Z,6.20
2018-09-12T03:08:20.537Z,7.20
2018-09-12T03:09:20.537Z,7.90
2018-09-12T03:10:20.472Z,7.90
2018-09-12T03:11:20.412Z,6.80
2018-09-12T03:12:20.406Z,6.50
2018-09-12T03:13:20.336Z,7.00
2018-09-12T03:14:20.308Z,6.80
2018-09-12T03:15:20.261Z,6.10
2018-09-12T03:16:20.220Z,7.90
2018-09-12T03:17:20.221Z,9.00
2018-09-12T03:18:20.162Z,7.50
2018-09-12T03:19:20.151Z,6.90
2018-09-12T03:20:20.098Z,7.40
2018-09-12T03:21:20.040Z,8.30
2018-09-12T03:22:20.008Z,8.20
2018-09-12T03:23:19.950Z,7.10
2018-09-12T03:24:19.962Z,12.70
2018-09-12T03:25:19.972Z,8.60
2018-09-12T03:26:19.850Z,11.00
2018-09-12T03:27:19.811Z,8.60
2018-09-12T03:28:19.846Z,8.20
2018-09-12T03:29:19.736Z,7.20
2018-09-12T03:30:19.778Z,7.50
2018-09-12T03:31:19.640Z,7.50
2018-09-12T03:32:19.633Z,6.20
2018-09-12T03:33:19.610Z,10.20
2018-09-12T03:34:19.533Z,8.10
2018-09-12T03:35:19.491Z,8.70
2018-09-12T03:36:19.462Z,7.20
2018-09-12T03:37:19.438Z,9.20
2018-09-12T03:38:19.376Z,6.90
2018-09-12T03:39:19.338Z,6.80
2018-09-12T03:40:19.296Z,7.30
2018-09-12T03:41:19.267Z,7.30
2018-09-12T03:42:19.228Z,6.30
2018-09-12T03:43:19.204Z,7.30
2018-09-12T03:44:19.169Z,7.40
2018-09-12T03:45:19.162Z,7.10
2018-09-12T03:46:19.081Z,6.60
2018-09-12T03:47:19.060Z,6.60
2018-09-12T03:48:19.022Z,6.80
2018-09-12T03:49:18.989Z,6.60
2018-09-12T03:50:18.917Z,7.70
2018-09-12T03:51:18.898Z,6.90
2018-09-12T03:52:18.856Z,6.50
2018-09-12T03:53:18.825Z,6.60
2018-09-12T03:54:18.783Z,6.90
2018-09-12T03:55:18.726Z,6.30
2018-09-12T03:56:18.741Z,9.80
2018-09-12T03:57:18.671Z,14.50
2018-09-12T03:58:18.625Z,8.90
2018-09-12T03:59:18.680Z,8.30
2018-09-12T04:00:18.537Z,6.40
2018-09-12T04:01:18.496Z,6.40
2018-09-12T04:02:18.474Z,6.60
2018-09-12T04:03:18.435Z,9.70
2018-09-12T04:04:18.381Z,8.10
2018-09-12T04:05:18.340Z,7.40
2018-09-12T04:06:18.312Z,6.10
2018-09-12T04:07:18.269Z,6.10
2018-09-12T04:08:18.261Z,6.80
2018-09-12T04:09:18.218Z,10.20
2018-09-12T04:10:18.177Z,19.60
2018-09-12T04:11:18.154Z,10.30
2018-09-12T04:12:18.145Z,15.60
2018-09-12T04:13:18.063Z,9.60
2018-09-12T04:14:18.025Z,7.10
2018-09-12T04:15:17.989Z,6.90
2018-09-12T04:16:17.943Z,7.10
2018-09-12T04:17:17.872Z,7.90
2018-09-12T04:18:17.844Z,7.60
2018-09-12T04:19:17.809Z,7.30
2018-09-12T04:20:17.771Z,6.90
2018-09-12T04:21:17.728Z,6.80
2018-09-12T04:22:18.662Z,8.70
2018-09-12T04:23:17.672Z,6.90
2018-09-12T04:24:17.667Z,7.20
2018-09-12T04:25:17.611Z,9.10
2018-09-12T04:26:17.538Z,6.40
2018-09-12T04:27:17.577Z,6.70
2018-09-12T04:28:17.462Z,7.70
2018-09-12T04:29:17.447Z,6.80
2018-09-12T04:30:17.435Z,7.90
2018-09-12T04:31:17.366Z,8.10
2018-09-12T04:32:19.277Z,7.10
2018-09-12T04:33:17.301Z,6.90
2018-09-12T04:34:17.505Z,9.50
2018-09-12T04:35:17.193Z,12.10
2018-09-12T04:36:17.195Z,12.30
2018-09-12T04:37:17.173Z,13.90
2018-09-12T04:38:17.075Z,7.10
2018-09-12T04:39:17.060Z,7.70
2018-09-12T04:40:17.002Z,8.30
2018-09-12T04:41:18.815Z,7.00
2018-09-12T04:42:16.915Z,6.70
2018-09-12T04:43:16.917Z,8.10
2018-09-12T04:44:16.838Z,7.10
2018-09-12T04:45:16.833Z,8.50
2018-09-12T04:46:16.850Z,11.10
2018-09-12T04:47:16.749Z,10.30
2018-09-12T04:48:16.725Z,7.70
2018-09-12T04:49:16.661Z,6.90
2018-09-12T04:50:16.624Z,9.50
2018-09-12T04:51:16.594Z,7.70
2018-09-12T04:52:16.562Z,8.60
2018-09-12T04:53:16.515Z,7.60
2018-09-12T04:54:16.479Z,9.60
2018-09-12T04:55:16.440Z,7.10
2018-09-12T04:56:16.383Z,6.90
2018-09-12T04:57:16.336Z,9.10
2018-09-12T04:58:16.332Z,7.00
2018-09-12T04:59:16.287Z,6.80
2018-09-12T05:00:16.237Z,7.50
2018-09-12T05:01:16.213Z,8.30
2018-09-12T05:02:16.164Z,8.80
2018-09-12T05:03:16.115Z,9.40
2018-09-12T05:04:16.074Z,7.00
2018-09-12T05:05:16.050Z,6.60
2018-09-12T05:06:15.999Z,10.50
2018-09-12T05:07:15.980Z,7.80
2018-09-12T05:08:15.961Z,11.60
2018-09-12T05:09:15.889Z,8.10
2018-09-12T05:10:15.913Z,7.20
2018-09-12T05:11:15.849Z,7.70
2018-09-12T05:12:15.778Z,8.20
2018-09-12T05:13:15.734Z,7.60
2018-09-12T05:14:15.772Z,7.80
2018-09-12T05:15:15.648Z,7.50
2018-09-12T05:16:15.617Z,11.70
2018-09-12T05:17:15.574Z,8.20
2018-09-12T05:18:15.561Z,8.40
2018-09-12T05:19:15.501Z,6.80
2018-09-12T05:20:15.460Z,6.70
2018-09-12T05:21:15.432Z,6.70
2018-09-12T05:22:15.380Z,7.10
2018-09-12T05:23:17.267Z,8.40
2018-09-12T05:24:15.311Z,9.40
2018-09-12T05:25:15.296Z,7.90
2018-09-12T05:26:15.222Z,8.80
2018-09-12T05:27:15.197Z,9.20
2018-09-12T05:28:15.214Z,6.90
2018-09-12T05:29:15.119Z,8.00
2018-09-12T05:30:15.088Z,8.30
2018-09-12T05:31:15.047Z,7.10
2018-09-12T05:32:15.018Z,7.40
2018-09-12T05:33:14.994Z,7.70
2018-09-12T05:34:14.964Z,10.30
2018-09-12T05:35:14.899Z,8.10
2018-09-12T05:36:14.901Z,10.50
2018-09-12T05:37:14.858Z,9.10
2018-09-12T05:38:14.796Z,11.80
2018-09-12T05:39:14.740Z,12.20
2018-09-12T05:40:14.688Z,20.70
2018-09-12T05:41:14.695Z,28.50
2018-09-12T05:42:14.623Z,27.50
2018-09-12T05:43:14.627Z,18.70
2018-09-12T05:44:14.535Z,16.60
2018-09-12T05:45:14.567Z,15.90
2018-09-12T05:46:14.465Z,14.10
2018-09-12T05:47:14.459Z,17.90
2018-09-12T05:48:14.406Z,19.90
2018-09-12T05:49:14.377Z,21.40
2018-09-12T05:50:14.386Z,30.10
2018-09-12T05:51:14.285Z,21.40
2018-09-12T05:52:14.250Z,36.60
2018-09-12T05:53:14.203Z,22.70
2018-09-12T05:54:14.216Z,22.20
2018-09-12T05:55:14.122Z,32.00
2018-09-12T05:56:14.093Z,28.40
2018-09-12T05:57:14.091Z,23.40
2018-09-12T05:58:14.012Z,19.60
2018-09-12T05:59:13.977Z,19.30
2018-09-12T06:00:13.975Z,18.10
2018-09-12T06:01:13.900Z,14.80
2018-09-12T06:02:13.883Z,13.40
2018-09-12T06:03:13.838Z,16.30
2018-09-12T06:04:13.798Z,15.00
2018-09-12T06:05:13.767Z,13.50
2018-09-12T06:06:13.791Z,19.60
2018-09-12T06:07:13.882Z,10.10
2018-09-12T06:08:13.688Z,11.40
2018-09-12T06:09:13.606Z,16.20
2018-09-12T06:10:13.611Z,13.10
2018-09-12T06:11:13.542Z,13.20
2018-09-12T06:12:13.508Z,10.70
2018-09-12T06:13:13.465Z,12.70
2018-09-12T06:14:13.502Z,13.60
2018-09-12T06:15:13.405Z,10.00
2018-09-12T06:16:13.335Z,10.90
2018-09-12T06:17:13.330Z,7.70
2018-09-12T06:18:13.270Z,8.50
2018-09-12T06:19:13.299Z,8.70
2018-09-12T06:20:13.220Z,9.30
2018-09-12T06:21:13.164Z,10.30
2018-09-12T06:22:13.135Z,7.10
2018-09-12T06:23:13.094Z,7.40
2018-09-12T06:24:13.074Z,7.70
2018-09-12T06:25:13.090Z,6.50
2018-09-12T06:26:12.973Z,6.90
2018-09-12T06:27:12.957Z,8.40
2018-09-12T06:28:12.904Z,8.00
2018-09-12T06:29:12.858Z,6.80
2018-09-12T06:30:12.831Z,7.00
2018-09-12T06:31:12.806Z,7.60
2018-09-12T06:32:12.753Z,8.80
2018-09-12T06:33:12.735Z,5.70
2018-09-12T06:34:12.769Z,7.40
2018-09-12T06:35:12.643Z,6.30
2018-09-12T06:36:12.622Z,5.70
2018-09-12T06:37:12.566Z,7.80
2018-09-12T06:38:12.546Z,5.30
2018-09-12T06:39:12.503Z,5.90
2018-09-12T06:40:12.508Z,5.50
2018-09-12T06:41:12.462Z,5.50
2018-09-12T06:42:12.418Z,5.30
2018-09-12T06:43:12.369Z,5.90
2018-09-12T06:44:12.315Z,7.00
2018-09-12T06:45:12.305Z,7.20
2018-09-12T06:46:12.291Z,5.50
2018-09-12T06:47:12.214Z,6.30
2018-09-12T06:48:12.200Z,5.20
2018-09-12T06:49:12.140Z,6.00
2018-09-12T06:50:12.120Z,4.70
2018-09-12T06:51:12.077Z,4.30
2018-09-12T06:52:12.045Z,4.90
2018-09-12T06:53:12.017Z,5.60
2018-09-12T06:54:11.976Z,4.20
2018-09-12T06:55:11.936Z,5.80
2018-09-12T06:56:11.915Z,4.80
2018-09-12T06:57:11.871Z,6.60
2018-09-12T06:58:11.947Z,5.50
2018-09-12T06:59:11.817Z,4.60
2018-09-12T07:00:11.808Z,4.50
2018-09-12T07:01:11.799Z,4.50
2018-09-12T07:02:11.726Z,5.40
2018-09-12T07:03:11.690Z,6.90
2018-09-12T07:04:11.824Z,4.50
2018-09-12T07:05:11.689Z,8.50
2018-09-12T07:06:11.628Z,5.00
2018-09-12T07:07:11.625Z,3.80
2018-09-12T07:08:11.599Z,5.50
2018-09-12T07:09:11.545Z,4.80
2018-09-12T07:10:11.509Z,5.40
2018-09-12T07:11:11.526Z,4.90
2018-09-12T07:12:11.457Z,5.20
2018-09-12T07:13:11.431Z,4.50
2018-09-12T07:14:11.453Z,5.00
2018-09-12T07:15:11.386Z,6.00
2018-09-12T07:16:11.390Z,5.40
2018-09-12T07:17:11.324Z,7.30
2018-09-12T07:18:11.316Z,5.10
2018-09-12T07:19:11.295Z,3.60
2018-09-12T07:20:11.296Z,4.70
2018-09-12T07:21:11.262Z,6.30
2018-09-12T07:22:11.228Z,6.70
2018-09-12T07:23:11.190Z,6.60
2018-09-12T07:24:11.176Z,6.00
2018-09-12T07:25:11.172Z,4.80
2018-09-12T07:26:11.119Z,5.20
2018-09-12T07:27:11.144Z,5.30
2018-09-12T07:28:11.089Z,5.70
2018-09-12T07:29:11.066Z,8.00
2018-09-12T07:30:11.095Z,4.00
2018-09-12T07:31:11.028Z,5.20
2018-09-12T07:32:10.999Z,4.60
2018-09-12T07:33:10.984Z,5.00
2018-09-12T07:34:10.975Z,4.70
2018-09-12T07:35:10.956Z,5.90
2018-09-12T07:36:10.932Z,5.00
2018-09-12T07:37:10.931Z,4.60
2018-09-12T07:38:10.938Z,3.30
2018-09-12T07:39:10.893Z,4.90
2018-09-12T07:40:10.876Z,4.60
2018-09-12T07:41:10.866Z,4.80
2018-09-12T07:42:10.828Z,5.60
2018-09-12T07:43:10.828Z,6.00
2018-09-12T07:44:10.788Z,6.00
2018-09-12T07:45:10.758Z,3.80
2018-09-12T07:46:10.740Z,6.10
2018-09-12T07:47:10.729Z,4.60
2018-09-12T07:48:10.705Z,4.30
2018-09-12T07:49:10.735Z,4.30
2018-09-12T07:50:10.664Z,5.70
2018-09-12T07:51:10.643Z,4.10
2018-09-12T07:52:10.623Z,4.20
2018-09-12T07:53:10.641Z,3.80
2018-09-12T07:54:10.600Z,4.10
2018-09-12T07:55:10.633Z,4.70
2018-09-12T07:56:10.748Z,4.10
2018-09-12T07:57:10.600Z,4.60
2018-09-12T07:58:10.516Z,4.40
2018-09-12T07:59:10.527Z,4.50
2018-09-12T08:00:10.526Z,5.60
2018-09-12T08:01:10.511Z,5.60
2018-09-12T08:02:10.497Z,4.70
2018-09-12T08:03:10.493Z,4.40
2018-09-12T08:04:10.420Z,4.80
2018-09-12T08:05:10.542Z,3.80
2018-09-12T08:06:10.382Z,4.80
2018-09-12T08:07:10.353Z,3.80
2018-09-12T08:08:10.360Z,4.50
2018-09-12T08:09:10.325Z,5.20
2018-09-12T08:10:10.308Z,6.00
2018-09-12T08:11:10.270Z,4.40
2018-09-12T08:12:10.343Z,3.80
2018-09-12T08:13:10.224Z,3.70
2018-09-12T08:14:10.198Z,4.20
2018-09-12T08:15:10.181Z,5.80
2018-09-12T08:16:10.262Z,6.40
2018-09-12T08:17:10.126Z,3.60
2018-09-12T08:18:10.093Z,3.50
2018-09-12T08:19:10.148Z,3.50
2018-09-12T08:20:10.057Z,7.00
2018-09-12T08:21:10.029Z,6.00
2018-09-12T08:22:10.076Z,5.70
2018-09-12T08:23:09.984Z,4.40
2018-09-12T08:24:09.951Z,5.00
2018-09-12T08:25:09.939Z,4.20
2018-09-12T08:26:09.911Z,4.10
2018-09-12T08:27:09.898Z,3.90
2018-09-12T08:28:09.882Z,4.20
2018-09-12T08:29:09.894Z,6.10
2018-09-12T08:30:09.810Z,4.70
2018-09-12T08:31:09.792Z,4.80
2018-09-12T08:32:09.786Z,5.80
2018-09-12T08:33:09.827Z,3.60
2018-09-12T08:34:09.745Z,5.30
2018-09-12T08:35:09.740Z,5.00
2018-09-12T08:36:09.678Z,4.30
2018-09-12T08:37:09.652Z,5.30
2018-09-12T08:38:09.637Z,5.40
2018-09-12T08:39:09.591Z,4.20
2018-09-12T08:40:09.563Z,4.20
2018-09-12T08:41:09.564Z,4.80
2018-09-12T08:42:09.510Z,3.50
2018-09-12T08:43:09.488Z,4.80
2018-09-12T08:44:09.502Z,3.80
2018-09-12T08:45:09.529Z,4.50
2018-09-12T08:46:09.402Z,3.50
2018-09-12T08:47:09.367Z,5.80
2018-09-12T08:48:09.352Z,3.80
2018-09-12T08:49:09.317Z,5.40
2018-09-12T08:50:09.375Z,5.70
2018-09-12T08:51:09.272Z,3.40
2018-09-12T08:52:09.243Z,4.90
2018-09-12T08:53:09.227Z,4.10
2018-09-12T08:54:09.200Z,4.00
2018-09-12T08:55:09.168Z,4.20
2018-09-12T08:56:09.145Z,5.30
2018-09-12T08:57:09.124Z,3.90
2018-09-12T08:58:09.107Z,4.80
2018-09-12T08:59:09.086Z,3.60
2018-09-12T09:00:09.105Z,4.10
2018-09-12T09:01:09.055Z,3.90
2018-09-12T09:02:09.100Z,4.20
2018-09-12T09:03:09.016Z,4.40
2018-09-12T09:04:09.027Z,5.10
2018-09-12T09:05:08.917Z,5.10
2018-09-12T09:06:08.934Z,4.00
2018-09-12T09:07:08.880Z,3.60
2018-09-12T09:08:08.877Z,3.80
2018-09-12T09:09:08.949Z,3.30
2018-09-12T09:10:08.834Z,5.50
2018-09-12T09:11:08.809Z,4.60
2018-09-12T09:12:08.754Z,3.60
2018-09-12T09:13:08.759Z,5.70
2018-09-12T09:14:08.738Z,4.60
2018-09-12T09:15:08.781Z,5.10
2018-09-12T09:16:08.732Z,4.90
2018-09-12T09:17:08.710Z,4.10
2018-09-12T09:18:08.628Z,5.60
2018-09-12T09:19:08.660Z,4.80
2018-09-12T09:20:08.625Z,3.30
2018-09-12T09:21:08.563Z,4.00
2018-09-12T09:22:08.530Z,3.50
2018-09-12T09:23:08.522Z,5.90
2018-09-12T09:24:08.501Z,4.50
2018-09-12T09:25:08.483Z,4.20
2018-09-12T09:26:08.429Z,5.30
2018-09-12T09:27:08.449Z,3.70
2018-09-12T09:28:08.433Z,4.30
2018-09-12T09:29:08.376Z,4.50
2018-09-12T09:30:08.372Z,3.80
2018-09-12T09:31:08.362Z,4.10
2018-09-12T09:32:08.318Z,4.20
2018-09-12T09:33:08.281Z,4.30
2018-09-12T09:34:08.263Z,4.30
2018-09-12T09:35:08.291Z,3.50
2018-09-12T09:36:08.236Z,4.00
2018-09-12T09:37:08.241Z,4.50
2018-09-12T09:38:08.197Z,4.60
2018-09-12T09:39:08.160Z,3.10
2018-09-12T09:40:08.169Z,4.10
2018-09-12T09:41:08.150Z,4.00
2018-09-12T09:42:08.133Z,3.60
2018-09-12T09:43:08.108Z,3.40
2018-09-12T09:44:08.141Z,4.00
2018-09-12T09:45:08.124Z,3.70
2018-09-12T09:46:08.047Z,4.20
2018-09-12T09:47:08.058Z,5.70
2018-09-12T09:48:08.023Z,5.40
2018-09-12T09:49:07.983Z,3.30
2018-09-12T09:50:07.966Z,4.80
2018-09-12T09:51:07.942Z,6.10
2018-09-12T09:52:07.956Z,3.20
2018-09-12T09:53:07.920Z,3.10
2018-09-12T09:54:07.889Z,3.20
2018-09-12T09:55:08.002Z,3.40
2018-09-12T09:56:07.832Z,3.00
2018-09-12T09:57:07.844Z,5.20
2018-09-12T09:58:07.857Z,6.10
2018-09-12T09:59:07.854Z,3.90
2018-09-12T10:00:07.793Z,4.80
2018-09-12T10:01:07.782Z,5.50
2018-09-12T10:02:07.765Z,4.20
2018-09-12T10:03:07.716Z,4.60
2018-09-12T10:04:07.704Z,4.10
2018-09-12T10:05:07.678Z,3.00
2018-09-12T10:06:07.646Z,3.50
2018-09-12T10:07:07.669Z,3.50
2018-09-12T10:08:07.621Z,4.60
2018-09-12T10:09:07.613Z,5.50
2018-09-12T10:10:07.599Z,4.90
2018-09-12T10:11:07.640Z,4.40
2018-09-12T10:12:07.553Z,3.20
2018-09-12T10:13:07.554Z,4.20
2018-09-12T10:14:07.703Z,3.80
2018-09-12T10:15:07.505Z,3.60
2018-09-12T10:16:07.505Z,3.40
2018-09-12T10:17:07.474Z,3.50
2018-09-12T10:18:07.462Z,4.40
2018-09-12T10:19:07.452Z,3.50
2018-09-12T10:20:07.420Z,4.70
2018-09-12T10:21:07.415Z,3.30
2018-09-12T10:22:07.384Z,4.30
2018-09-12T10:23:07.376Z,6.00
2018-09-12T10:24:07.369Z,3.80
2018-09-12T10:25:07.352Z,4.10
2018-09-12T10:26:07.315Z,2.90
2018-09-12T10:27:07.325Z,2.90
2018-09-12T10:28:07.274Z,4.30
2018-09-12T10:29:07.284Z,4.30
2018-09-12T10:30:07.263Z,4.00
2018-09-12T10:31:07.244Z,2.90
2018-09-12T10:32:07.221Z,3.30
2018-09-12T10:33:07.184Z,4.90
2018-09-12T10:34:07.172Z,3.70
2018-09-12T10:35:07.169Z,4.60
2018-09-12T10:36:07.128Z,4.40
2018-09-12T10:37:07.154Z,3.10
2018-09-12T10:38:07.099Z,4.40
2018-09-12T10:39:07.087Z,4.70
2018-09-12T10:40:07.077Z,6.60
2018-09-12T10:41:07.163Z,3.50
2018-09-12T10:42:07.036Z,3.90
2018-09-12T10:43:07.035Z,3.00
2018-09-12T10:44:07.017Z,4.40
2018-09-12T10:45:06.989Z,3.80
2018-09-12T10:46:06.995Z,2.60
2018-09-12T10:47:06.942Z,3.80
2018-09-12T10:48:06.924Z,4.90
2018-09-12T10:49:06.911Z,3.90
2018-09-12T10:50:06.878Z,4.10
2018-09-12T10:51:06.873Z,2.60
2018-09-12T10:52:06.847Z,4.20
2018-09-12T10:53:06.891Z,4.10
2018-09-12T10:54:06.817Z,3.50
2018-09-12T10:55:06.791Z,4.40
2018-09-12T10:56:06.771Z,3.20
2018-09-12T10:57:06.761Z,2.70
2018-09-12T10:58:06.743Z,4.30
2018-09-12T10:59:06.902Z,5.20
2018-09-12T11:00:06.722Z,4.20
2018-09-12T11:01:06.673Z,3.20
2018-09-12T11:02:06.680Z,2.50
2018-09-12T11:03:06.640Z,2.80
2018-09-12T11:04:06.630Z,3.00
2018-09-12T11:05:06.637Z,4.80
2018-09-12T11:06:06.597Z,4.50
2018-09-12T11:07:06.583Z,4.70
2018-09-12T11:08:06.557Z,3.40
2018-09-12T11:09:06.685Z,3.90
2018-09-12T11:10:06.547Z,2.70
2018-09-12T11:11:06.508Z,3.30
2018-09-12T11:12:06.498Z,2.80
2018-09-12T11:13:06.462Z,4.40
2018-09-12T11:14:06.480Z,2.30
2018-09-12T11:15:06.439Z,5.10
2018-09-12T11:16:06.420Z,5.10
2018-09-12T11:17:06.410Z,3.00
2018-09-12T11:18:06.395Z,3.70
2018-09-12T11:19:06.353Z,5.70
2018-09-12T11:20:06.345Z,2.80
2018-09-12T11:21:06.361Z,2.70
2018-09-12T11:22:06.309Z,3.00
2018-09-12T11:23:06.288Z,3.40
2018-09-12T11:24:06.347Z,3.40
2018-09-12T11:25:06.261Z,3.80
2018-09-12T11:26:06.251Z,2.80
2018-09-12T11:27:06.221Z,3.80
2018-09-12T11:28:06.200Z,4.00
2018-09-12T11:29:06.175Z,4.50
2018-09-12T11:30:06.163Z,3.10
2018-09-12T11:31:06.197Z,2.80
2018-09-12T11:32:06.141Z,4.20
2018-09-12T11:33:06.110Z,3.40
2018-09-12T11:34:06.158Z,2.80
2018-09-12T11:35:06.093Z,3.60
2018-09-12T11:36:06.071Z,4.00
2018-09-12T11:37:06.042Z,3.80
2018-09-12T11:38:06.014Z,3.10
2018-09-12T11:39:05.987Z,4.00
2018-09-12T11:40:06.029Z,3.40
2018-09-12T11:41:05.969Z,2.90
2018-09-12T11:42:05.949Z,4.60
2018-09-12T11:43:05.923Z,4.10
2018-09-12T11:44:05.945Z,4.60
2018-09-12T11:45:05.892Z,3.60
2018-09-12T11:46:05.883Z,3.10
2018-09-12T11:47:05.872Z,5.20
2018-09-12T11:48:05.854Z,6.00
2018-09-12T11:49:05.880Z,5.30
2018-09-12T11:50:05.807Z,3.40
2018-09-12T11:51:05.802Z,3.00
2018-09-12T11:52:05.756Z,5.50
2018-09-12T11:53:05.761Z,5.60
2018-09-12T11:54:05.729Z,3.30
2018-09-12T11:55:05.693Z,3.90
2018-09-12T11:56:05.704Z,3.10
2018-09-12T11:57:05.703Z,4.50
2018-09-12T11:58:05.703Z,4.70
2018-09-12T11:59:05.684Z,4.30
2018-09-12T12:00:05.607Z,3.90
2018-09-12T12:01:05.596Z,3.30
2018-09-12T12:02:05.591Z,3.10
2018-09-12T12:03:05.626Z,3.50
2018-09-12T12:04:05.561Z,4.30
2018-09-12T12:05:05.528Z,3.30
2018-09-12T12:06:05.498Z,3.60
2018-09-12T12:07:05.603Z,4.00
2018-09-12T12:08:05.463Z,4.60
2018-09-12T12:09:05.484Z,4.90
2018-09-12T12:10:05.426Z,3.30
2018-09-12T12:11:05.484Z,4.60
2018-09-12T12:12:05.420Z,4.10
2018-09-12T12:13:05.400Z,4.70
2018-09-12T12:14:05.355Z,3.20
2018-09-12T12:15:05.349Z,7.40
2018-09-12T12:16:05.345Z,4.50
2018-09-12T12:17:05.329Z,4.00
2018-09-12T12:18:05.325Z,3.70
2018-09-12T12:19:05.283Z,5.70
2018-09-12T12:20:05.246Z,5.00
2018-09-12T12:21:05.275Z,3.80
2018-09-12T12:22:05.230Z,4.10
2018-09-12T12:23:05.240Z,4.30
2018-09-12T12:24:05.224Z,3.90
2018-09-12T12:25:05.180Z,5.60
2018-09-12T12:26:05.857Z,5.40
2018-09-12T12:27:05.162Z,3.70
2018-09-12T12:28:05.293Z,3.90
2018-09-12T12:29:05.084Z,5.00
2018-09-12T12:30:05.080Z,4.80
2018-09-12T12:31:05.056Z,3.50
2018-09-12T12:32:05.083Z,3.70
2018-09-12T12:33:05.004Z,3.80
2018-09-12T12:34:04.992Z,3.40
2018-09-12T12:35:04.984Z,6.20
2018-09-12T12:36:04.954Z,4.50
2018-09-12T12:37:04.929Z,4.90
2018-09-12T12:38:04.901Z,3.40
2018-09-12T12:39:04.896Z,4.00
2018-09-12T12:40:04.878Z,4.30
2018-09-12T12:41:04.923Z,4.70
2018-09-12T12:42:04.852Z,8.20
2018-09-12T12:43:04.822Z,3.30
2018-09-12T12:44:04.804Z,8.80
2018-09-12T12:45:04.777Z,6.40
2018-09-12T12:46:04.761Z,3.70
2018-09-12T12:47:04.804Z,5.50
2018-09-12T12:48:04.806Z,4.80
2018-09-12T12:49:04.725Z,6.70
2018-09-12T12:50:04.710Z,3.50
2018-09-12T12:51:04.676Z,4.70
2018-09-12T12:52:04.693Z,5.50
2018-09-12T12:53:04.637Z,4.90
2018-09-12T12:54:04.617Z,5.50
2018-09-12T12:55:04.629Z,3.70
2018-09-12T12:56:04.583Z,3.70
2018-09-12T12:57:04.594Z,4.50
2018-09-12T12:58:04.552Z,4.00
2018-09-12T12:59:04.522Z,4.90
2018-09-12T13:00:04.539Z,4.00
2018-09-12T13:01:04.507Z,3.70
2018-09-12T13:02:04.466Z,6.00
2018-09-12T13:03:04.471Z,5.70
2018-09-12T13:04:04.446Z,3.60
2018-09-12T13:05:04.426Z,3.90
2018-09-12T13:06:04.392Z,6.90
2018-09-12T13:07:04.400Z,5.40
2018-09-12T13:08:04.371Z,5.00
2018-09-12T13:09:04.336Z,4.50
2018-09-12T13:10:04.314Z,6.90
2018-09-12T13:11:04.336Z,3.50
2018-09-12T13:12:04.322Z,6.20
2018-09-12T13:13:04.247Z,3.70
2018-09-12T13:14:04.257Z,3.60
2018-09-12T13:15:04.236Z,4.70
2018-09-12T13:16:04.200Z,9.60